createdAt,value
2017-11-05T00:00:09.890Z,10.53
2017-11-05T00:02:38.176Z,11.80
2017-11-05T00:05:07.231Z,10.23
2017-11-05T00:07:36.287Z,11.30
2017-11-05T00:10:04.577Z,10.30
2017-11-05T00:12:32.879Z,10.23
2017-11-05T00:15:01.934Z,10.10
2017-11-05T00:17:30.245Z,10.23
2017-11-05T00:19:58.538Z,11.15
2017-11-05T00:22:26.833Z,9.67
2017-11-05T00:24:55.122Z,9.07
2017-11-05T00:27:23.414Z,10.67
2017-11-05T00:29:51.701Z,12.20
2017-11-05T00:32:20.002Z,11.10
2017-11-05T00:34:49.060Z,9.93
2017-11-05T00:37:17.360Z,10.83
2017-11-05T00:39:45.656Z,11.10
2017-11-05T00:42:14.716Z,10.15
2017-11-05T00:44:43.012Z,11.85
2017-11-05T00:47:11.321Z,10.90
2017-11-05T00:49:39.616Z,11.23
2017-11-05T00:52:07.919Z,14.73
2017-11-05T00:54:36.216Z,12.00
2017-11-05T00:57:04.519Z,11.30
2017-11-05T00:59:32.820Z,11.10
2017-11-05T01:02:01.125Z,10.27
2017-11-05T01:04:29.417Z,11.90
2017-11-05T01:06:57.712Z,9.47
2017-11-05T01:09:26.780Z,10.10
2017-11-05T01:11:55.077Z,9.68
2017-11-05T01:14:23.383Z,11.23
2017-11-05T01:16:52.436Z,9.70
2017-11-05T01:19:20.728Z,11.63
2017-11-05T01:21:49.021Z,9.37
2017-11-05T01:24:17.303Z,9.77
2017-11-05T01:26:46.117Z,10.13
2017-11-05T01:29:14.422Z,9.20
2017-11-05T01:31:42.712Z,10.77
2017-11-05T01:34:11.005Z,10.10
2017-11-05T01:36:41.261Z,9.80
2017-11-05T01:39:09.549Z,12.90
2017-11-05T01:41:37.857Z,10.20
2017-11-05T01:44:06.156Z,10.53
2017-11-05T01:46:34.449Z,9.40
2017-11-05T01:49:02.735Z,9.70
2017-11-05T01:51:31.025Z,9.40
2017-11-05T01:53:59.317Z,9.13
2017-11-05T01:56:27.619Z,9.90
2017-11-05T01:58:55.917Z,10.70
2017-11-05T02:01:24.225Z,11.13
2017-11-05T02:03:52.905Z,10.57
2017-11-05T02:06:21.192Z,12.33
2017-11-05T02:08:49.507Z,10.63
2017-11-05T02:11:17.800Z,9.07
2017-11-05T02:13:46.857Z,9.87
2017-11-05T02:16:15.148Z,12.13
2017-11-05T02:18:43.452Z,10.00
2017-11-05T02:21:11.791Z,10.67
2017-11-05T02:23:40.073Z,9.32
2017-11-05T02:26:08.365Z,11.27
2017-11-05T02:28:36.660Z,10.00
2017-11-05T02:31:04.977Z,10.57
2017-11-05T02:33:33.268Z,11.13
2017-11-05T02:36:01.561Z,9.77
2017-11-05T02:38:29.852Z,17.07
2017-11-05T02:40:58.157Z,10.40
2017-11-05T02:43:27.221Z,10.43
2017-11-05T02:45:55.513Z,10.47
2017-11-05T02:48:24.583Z,9.57
2017-11-05T02:50:52.872Z,13.18
2017-11-05T02:53:21.176Z,13.57
2017-11-05T02:55:49.489Z,11.20
2017-11-05T02:58:17.801Z,12.43
2017-11-05T03:00:46.093Z,11.32
2017-11-05T03:03:15.160Z,10.93
2017-11-05T03:05:43.461Z,11.60
2017-11-05T03:08:12.520Z,10.43
2017-11-05T03:10:40.821Z,13.80
2017-11-05T03:13:09.124Z,9.35
2017-11-05T03:15:37.432Z,11.27
2017-11-05T03:18:05.742Z,10.40
2017-11-05T03:20:34.042Z,12.00
2017-11-05T03:23:02.340Z,10.90
2017-11-05T03:25:30.642Z,11.57
2017-11-05T03:27:59.615Z,10.80
2017-11-05T03:30:27.902Z,10.70
2017-11-05T03:32:56.344Z,12.30
2017-11-05T03:35:25.398Z,9.80
2017-11-05T03:37:53.716Z,12.20
2017-11-05T03:40:22.019Z,10.87
2017-11-05T03:42:50.312Z,12.10
2017-11-05T03:45:18.731Z,11.33
2017-11-05T03:47:47.054Z,10.97
2017-11-05T03:50:15.849Z,12.55
2017-11-05T03:52:44.140Z,11.67
2017-11-05T03:55:12.428Z,10.73
2017-11-05T03:57:40.744Z,12.33
2017-11-05T04:00:09.049Z,11.80
2017-11-05T04:02:37.348Z,12.27
2017-11-05T04:05:05.637Z,14.30
2017-11-05T04:07:33.936Z,14.35
2017-11-05T04:10:02.273Z,12.88
2017-11-05T04:12:30.589Z,13.30
2017-11-05T04:14:58.883Z,13.32
2017-11-05T04:17:27.183Z,13.60
2017-11-05T04:19:55.522Z,13.87
2017-11-05T04:22:23.833Z,14.40
2017-11-05T04:24:52.144Z,15.67
2017-11-05T04:27:20.440Z,13.57
2017-11-05T04:29:49.521Z,11.30
2017-11-05T04:32:17.814Z,15.30
2017-11-05T04:34:46.101Z,12.67
2017-11-05T04:37:14.384Z,14.67
2017-11-05T04:39:44.143Z,14.33
2017-11-05T04:42:12.453Z,18.10
2017-11-05T04:44:40.739Z,16.60
2017-11-05T04:47:09.027Z,12.33
2017-11-05T04:49:38.189Z,12.03
2017-11-05T04:52:06.488Z,8.77
2017-11-05T04:54:34.792Z,9.63
2017-11-05T04:57:03.088Z,11.32
2017-11-05T04:59:31.380Z,10.90
2017-11-05T05:02:00.141Z,7.60
2017-11-05T05:04:28.441Z,6.47
2017-11-05T05:06:56.732Z,6.20
2017-11-05T05:09:25.036Z,6.90
2017-11-05T05:11:53.328Z,6.57
2017-11-05T05:14:21.622Z,7.37
2017-11-05T05:16:49.924Z,7.70
2017-11-05T05:19:18.228Z,6.93
2017-11-05T05:21:46.758Z,6.77
2017-11-05T05:24:15.052Z,5.30
2017-11-05T05:26:44.073Z,7.73
2017-11-05T05:29:12.373Z,6.60
2017-11-05T05:31:40.672Z,5.70
2017-11-05T05:34:08.966Z,6.80
2017-11-05T05:36:37.248Z,7.17
2017-11-05T05:39:05.527Z,8.47
2017-11-05T05:41:33.820Z,6.10
2017-11-05T05:44:02.103Z,9.13
2017-11-05T05:46:30.405Z,6.70
2017-11-05T05:48:59.460Z,7.73
2017-11-05T05:51:28.521Z,6.40
2017-11-05T05:53:56.826Z,7.20
2017-11-05T05:56:25.120Z,6.70
2017-11-05T05:58:53.409Z,5.40
2017-11-05T06:01:21.714Z,5.43
2017-11-05T06:03:50.770Z,7.25
2017-11-05T06:06:19.056Z,4.68
2017-11-05T06:08:47.351Z,7.03
2017-11-05T06:11:15.652Z,5.30
2017-11-05T06:13:43.949Z,6.00
2017-11-05T06:16:12.252Z,5.90
2017-11-05T06:18:40.544Z,6.00
2017-11-05T06:21:08.845Z,6.40
2017-11-05T06:23:37.132Z,5.70
2017-11-05T06:26:05.433Z,6.57
2017-11-05T06:28:33.712Z,5.73
2017-11-05T06:31:02.001Z,6.63
2017-11-05T06:33:30.275Z,5.90
2017-11-05T06:35:58.573Z,5.70
2017-11-05T06:38:26.855Z,6.20
2017-11-05T06:40:55.152Z,5.80
2017-11-05T06:43:24.197Z,6.13
2017-11-05T06:45:53.273Z,5.80
2017-11-05T06:48:21.549Z,5.65
2017-11-05T06:50:49.852Z,8.48
2017-11-05T06:53:18.154Z,6.37
2017-11-05T06:55:46.446Z,6.20
2017-11-05T06:58:14.728Z,6.40
2017-11-05T07:00:44.917Z,5.67
2017-11-05T07:03:13.214Z,6.20
2017-11-05T07:05:41.501Z,5.20
2017-11-05T07:08:09.784Z,5.70
2017-11-05T07:10:39.656Z,7.87
2017-11-05T07:13:07.958Z,7.53
2017-11-05T07:15:36.244Z,8.43
2017-11-05T07:18:04.533Z,6.90
2017-11-05T07:20:32.823Z,8.10
2017-11-05T07:23:01.110Z,7.80
2017-11-05T07:25:29.404Z,11.33
2017-11-05T07:27:58.068Z,6.50
2017-11-05T07:30:26.359Z,10.53
2017-11-05T07:32:54.657Z,10.43
2017-11-05T07:35:22.991Z,9.13
2017-11-05T07:37:51.289Z,7.87
2017-11-05T07:40:20.349Z,7.43
2017-11-05T07:42:48.641Z,6.50
2017-11-05T07:45:16.938Z,6.80
2017-11-05T07:47:45.861Z,5.77
2017-11-05T07:50:14.158Z,8.40
2017-11-05T07:52:43.221Z,5.33
2017-11-05T07:55:11.505Z,4.80
2017-11-05T07:57:40.193Z,4.47
2017-11-05T08:00:08.501Z,4.43
2017-11-05T08:02:37.569Z,4.90
2017-11-05T08:05:05.863Z,5.00
2017-11-05T08:07:34.920Z,5.10
2017-11-05T08:10:03.204Z,4.40
2017-11-05T08:12:31.493Z,5.57
2017-11-05T08:14:59.780Z,4.70
2017-11-05T08:17:28.917Z,4.20
2017-11-05T08:19:57.212Z,3.50
2017-11-05T08:22:25.512Z,4.78
2017-11-05T08:24:53.828Z,3.50
2017-11-05T08:27:22.128Z,3.20
2017-11-05T08:29:50.420Z,3.00
2017-11-05T08:32:18.708Z,2.62
2017-11-05T08:34:47.023Z,2.70
2017-11-05T08:37:16.082Z,2.23
2017-11-05T08:39:44.369Z,1.97
2017-11-05T08:42:12.673Z,2.67
2017-11-05T08:44:41.728Z,2.20
2017-11-05T08:47:10.029Z,1.83
2017-11-05T08:49:38.321Z,2.73
2017-11-05T08:52:06.616Z,2.70
2017-11-05T08:54:34.901Z,2.23
2017-11-05T08:57:03.198Z,4.30
2017-11-05T08:59:31.492Z,0.83
2017-11-05T09:01:59.780Z,0.70
2017-11-05T09:04:28.081Z,0.97
2017-11-05T09:06:56.368Z,0.63
2017-11-05T09:09:24.669Z,0.70
2017-11-05T09:11:52.951Z,0.57
2017-11-05T09:14:21.244Z,0.50
2017-11-05T09:16:49.533Z,0.37
2017-11-05T09:19:17.842Z,0.30
2017-11-05T09:21:46.885Z,0.30
2017-11-05T09:24:15.182Z,0.32
2017-11-05T09:26:43.475Z,0.33
2017-11-05T09:29:11.987Z,0.30
2017-11-05T09:31:40.277Z,0.30
2017-11-05T09:34:09.337Z,0.20
2017-11-05T09:36:38.393Z,0.20
2017-11-05T09:39:06.673Z,0.30
2017-11-05T09:41:34.975Z,0.30
2017-11-05T09:44:03.314Z,0.20
2017-11-05T09:46:31.596Z,0.43
2017-11-05T09:48:59.893Z,0.20
2017-11-05T09:51:28.189Z,0.40
2017-11-05T09:53:56.488Z,0.30
2017-11-05T09:56:24.777Z,0.20
2017-11-05T09:58:53.068Z,0.33
2017-11-05T10:01:21.352Z,0.40
2017-11-05T10:03:49.629Z,0.30
2017-11-05T10:06:17.913Z,0.37
2017-11-05T10:08:46.199Z,0.30
2017-11-05T10:11:14.580Z,0.60
2017-11-05T10:13:42.858Z,0.30
2017-11-05T10:16:11.284Z,0.30
2017-11-05T10:18:39.593Z,0.20
2017-11-05T10:21:07.868Z,0.30
2017-11-05T10:23:36.996Z,0.30
2017-11-05T10:26:05.284Z,0.27
2017-11-05T10:28:34.340Z,0.37
2017-11-05T10:31:02.612Z,0.33
2017-11-05T10:33:30.892Z,0.30
2017-11-05T10:35:59.168Z,0.40
2017-11-05T10:38:27.577Z,0.70
2017-11-05T10:40:55.861Z,0.30
2017-11-05T10:43:24.918Z,0.20
2017-11-05T10:45:53.212Z,0.23
2017-11-05T10:48:21.505Z,0.30
2017-11-05T10:50:50.566Z,0.37
2017-11-05T10:53:18.874Z,0.45
2017-11-05T10:55:47.166Z,0.30
2017-11-05T10:58:15.445Z,0.37
2017-11-05T11:00:43.737Z,0.40
2017-11-05T11:03:12.029Z,0.60
2017-11-05T11:05:40.300Z,0.60
2017-11-05T11:08:08.581Z,0.83
2017-11-05T11:10:36.877Z,0.50
2017-11-05T11:13:05.162Z,0.60
2017-11-05T11:15:33.467Z,0.40
2017-11-05T11:18:02.519Z,0.60
2017-11-05T11:20:30.804Z,0.50
2017-11-05T11:22:59.119Z,0.50
2017-11-05T11:25:27.417Z,1.00
2017-11-05T11:27:55.701Z,0.70
2017-11-05T11:30:24.008Z,0.60
2017-11-05T11:32:52.301Z,0.80
2017-11-05T11:35:20.580Z,0.47
2017-11-05T11:37:49.645Z,0.68
2017-11-05T11:40:17.924Z,0.60
2017-11-05T11:42:46.209Z,0.50
2017-11-05T11:45:14.499Z,0.50
2017-11-05T11:47:42.793Z,0.50
2017-11-05T11:50:11.136Z,0.30
2017-11-05T11:52:39.419Z,0.40
2017-11-05T11:55:07.734Z,0.40
2017-11-05T11:57:36.026Z,0.60
2017-11-05T12:00:04.318Z,0.50
2017-11-05T12:02:33.366Z,0.30
2017-11-05T12:05:01.653Z,0.80
2017-11-05T12:07:30.709Z,0.67
2017-11-05T12:09:59.023Z,0.60
2017-11-05T12:12:27.331Z,0.40
2017-11-05T12:14:55.617Z,0.30
2017-11-05T12:17:23.932Z,0.40
2017-11-05T12:19:53.352Z,0.30
2017-11-05T12:22:21.712Z,0.32
2017-11-05T12:24:50.007Z,0.30
2017-11-05T12:27:19.108Z,0.60
2017-11-05T12:29:47.413Z,0.60
2017-11-05T12:32:15.710Z,0.60
2017-11-05T12:34:44.032Z,0.43
2017-11-05T12:37:13.124Z,0.40
2017-11-05T12:39:41.472Z,0.47
2017-11-05T12:42:09.774Z,0.50
2017-11-05T12:44:38.825Z,0.40
2017-11-05T12:47:07.323Z,0.30
2017-11-05T12:49:35.632Z,0.52
2017-11-05T12:52:03.940Z,0.40
2017-11-05T12:54:32.249Z,0.50
2017-11-05T12:57:00.581Z,0.30
2017-11-05T12:59:28.902Z,0.37
2017-11-05T13:01:57.215Z,0.47
2017-11-05T13:04:26.316Z,0.40
2017-11-05T13:06:54.892Z,0.50
2017-11-05T13:09:23.895Z,0.27
2017-11-05T13:11:52.426Z,0.50
2017-11-05T13:14:20.901Z,0.50
2017-11-05T13:16:50.491Z,0.40
2017-11-05T13:19:18.847Z,0.40
2017-11-05T13:21:47.609Z,0.50
2017-11-05T13:24:16.045Z,0.62
2017-11-05T13:26:46.778Z,0.70
2017-11-05T13:29:16.729Z,1.00
2017-11-05T13:31:45.484Z,1.63
2017-11-05T13:34:14.443Z,0.53
2017-11-05T13:36:43.011Z,1.07
2017-11-05T13:39:11.513Z,1.00
2017-11-05T13:41:40.758Z,0.80
2017-11-05T13:44:09.196Z,1.00
2017-11-05T13:46:37.597Z,1.23
2017-11-05T13:49:05.958Z,1.30
2017-11-05T13:51:34.383Z,0.73
2017-11-05T13:54:02.722Z,1.13
2017-11-05T13:56:31.111Z,1.20
2017-11-05T13:58:59.601Z,1.00
2017-11-05T14:01:28.723Z,1.17
2017-11-05T14:03:57.263Z,1.87
2017-11-05T14:06:25.636Z,1.47
2017-11-05T14:08:53.944Z,1.52
2017-11-05T14:11:22.234Z,1.93
2017-11-05T14:13:50.530Z,2.53
2017-11-05T14:16:19.636Z,1.70
2017-11-05T14:18:48.063Z,2.07
2017-11-05T14:21:16.410Z,1.30
2017-11-05T14:23:44.934Z,1.48
2017-11-05T14:26:14.100Z,1.70
2017-11-05T14:28:42.401Z,1.67
2017-11-05T14:31:10.843Z,1.70
2017-11-05T14:33:39.153Z,1.30
2017-11-05T14:36:07.507Z,1.53
2017-11-05T14:38:35.944Z,1.30
2017-11-05T14:41:04.575Z,1.33
2017-11-05T14:43:33.363Z,1.75
2017-11-05T14:46:01.750Z,1.30
2017-11-05T14:48:30.793Z,1.40
2017-11-05T14:50:59.215Z,1.60
2017-11-05T14:53:28.634Z,1.73
2017-11-05T14:55:57.066Z,2.00
2017-11-05T14:58:25.385Z,1.20
2017-11-05T15:00:53.772Z,1.80
2017-11-05T15:03:22.100Z,1.80
2017-11-05T15:05:51.171Z,1.80
2017-11-05T15:08:19.538Z,1.63
2017-11-05T15:10:47.843Z,2.00
2017-11-05T15:13:16.936Z,0.90
2017-11-05T15:15:45.225Z,1.57
2017-11-05T15:18:13.518Z,1.87
2017-11-05T15:20:41.819Z,1.63
2017-11-05T15:23:10.151Z,3.30
2017-11-05T15:25:38.476Z,2.43
2017-11-05T15:28:06.800Z,1.53
2017-11-05T15:30:35.863Z,2.10
2017-11-05T15:33:04.211Z,2.30
2017-11-05T15:35:32.558Z,1.50
2017-11-05T15:38:01.627Z,1.33
2017-11-05T15:40:30.755Z,2.80
2017-11-05T15:42:59.176Z,2.20
2017-11-05T15:45:27.497Z,1.87
2017-11-05T15:47:55.932Z,5.30
2017-11-05T15:50:24.249Z,7.43
2017-11-05T15:52:52.597Z,8.13
2017-11-05T15:55:20.898Z,5.40
2017-11-05T15:57:49.297Z,4.73
2017-11-05T16:00:18.741Z,3.03
2017-11-05T16:02:48.955Z,4.60
2017-11-05T16:05:17.386Z,14.83
2017-11-05T16:07:46.606Z,20.87
2017-11-05T16:10:15.057Z,10.80
2017-11-05T16:12:44.519Z,8.50
2017-11-05T16:15:13.080Z,7.95
2017-11-05T16:17:41.510Z,3.83
2017-11-05T16:20:09.976Z,4.67
2017-11-05T16:22:38.663Z,2.42
2017-11-05T16:25:07.039Z,2.50
2017-11-05T16:27:35.460Z,2.50
2017-11-05T16:30:03.882Z,2.53
2017-11-05T16:32:33.056Z,2.90
2017-11-05T16:35:01.383Z,2.50
2017-11-05T16:37:29.743Z,2.60
2017-11-05T16:39:58.867Z,2.60
2017-11-05T16:42:27.473Z,6.70
2017-11-05T16:44:55.834Z,5.10
2017-11-05T16:47:24.269Z,2.53
2017-11-05T16:49:54.673Z,5.37
2017-11-05T16:52:23.185Z,7.37
2017-11-05T16:54:51.686Z,6.80
2017-11-05T16:57:20.168Z,5.40
2017-11-05T16:59:48.910Z,3.93
2017-11-05T17:02:17.845Z,3.10
2017-11-05T17:04:47.001Z,3.00
2017-11-05T17:07:17.494Z,3.07
2017-11-05T17:09:46.846Z,3.50
2017-11-05T17:12:16.641Z,4.90
2017-11-05T17:14:45.634Z,3.15
2017-11-05T17:17:14.869Z,3.67
2017-11-05T17:19:44.350Z,3.40
2017-11-05T17:22:13.516Z,3.30
2017-11-05T17:24:43.154Z,3.37
2017-11-05T17:27:13.746Z,3.40
2017-11-05T17:29:42.480Z,3.80
2017-11-05T17:32:11.136Z,3.40
2017-11-05T17:34:39.913Z,3.70
2017-11-05T17:37:09.346Z,4.00
2017-11-05T17:39:39.054Z,3.53
2017-11-05T17:42:08.659Z,4.00
2017-11-05T17:44:39.867Z,3.20
2017-11-05T17:47:09.368Z,3.57
2017-11-05T17:49:39.022Z,4.93
2017-11-05T17:52:09.513Z,5.03
2017-11-05T17:54:39.263Z,4.73
2017-11-05T17:57:08.947Z,4.17
2017-11-05T17:59:38.744Z,4.90
2017-11-05T18:02:08.497Z,5.13
2017-11-05T18:04:38.382Z,4.30
2017-11-05T18:07:08.212Z,3.50
2017-11-05T18:09:38.712Z,4.27
2017-11-05T18:12:08.529Z,7.40
2017-11-05T18:14:38.333Z,3.50
2017-11-05T18:17:08.077Z,2.97
2017-11-05T18:19:38.679Z,2.53
2017-11-05T18:22:09.445Z,3.70
2017-11-05T18:24:39.358Z,3.23
2017-11-05T18:27:09.400Z,3.30
2017-11-05T18:29:39.256Z,4.07
2017-11-05T18:32:09.114Z,4.00
2017-11-05T18:34:38.935Z,5.23
2017-11-05T18:37:08.964Z,6.03
2017-11-05T18:39:38.830Z,7.50
2017-11-05T18:42:08.843Z,8.60
2017-11-05T18:44:39.138Z,8.30
2017-11-05T18:47:09.323Z,6.97
2017-11-05T18:49:39.279Z,14.83
2017-11-05T18:52:09.199Z,12.00
2017-11-05T18:54:39.030Z,9.50
2017-11-05T18:57:09.011Z,17.10
2017-11-05T18:59:38.826Z,21.17
2017-11-05T19:02:08.596Z,14.17
2017-11-05T19:04:38.562Z,7.82
2017-11-05T19:07:08.446Z,6.37
2017-11-05T19:09:39.035Z,6.50
2017-11-05T19:12:09.027Z,7.17
2017-11-05T19:14:38.897Z,8.10
2017-11-05T19:17:08.750Z,6.17
2017-11-05T19:19:38.641Z,5.40
2017-11-05T19:22:08.416Z,6.30
2017-11-05T19:24:38.286Z,4.20
2017-11-05T19:27:08.208Z,4.80
2017-11-05T19:29:38.105Z,4.30
2017-11-05T19:32:08.252Z,3.60
2017-11-05T19:34:38.091Z,5.10
2017-11-05T19:37:07.982Z,4.90
2017-11-05T19:39:37.888Z,5.33
2017-11-05T19:42:08.713Z,5.50
2017-11-05T19:44:38.626Z,7.10
2017-11-05T19:47:08.681Z,5.50
2017-11-05T19:49:39.755Z,4.87
2017-11-05T19:52:09.647Z,5.23
2017-11-05T19:54:40.388Z,5.30
2017-11-05T19:57:10.275Z,5.63
2017-11-05T19:59:40.183Z,6.50
2017-11-05T20:02:10.755Z,9.83
2017-11-05T20:04:40.609Z,7.00
2017-11-05T20:07:10.439Z,5.20
2017-11-05T20:09:41.126Z,5.90
2017-11-05T20:12:10.912Z,4.97
2017-11-05T20:14:40.718Z,3.33
2017-11-05T20:17:10.576Z,4.20
2017-11-05T20:19:40.422Z,4.00
2017-11-05T20:22:10.391Z,3.80
2017-11-05T20:24:40.315Z,4.50
2017-11-05T20:27:10.262Z,3.70
2017-11-05T20:29:40.212Z,4.47
2017-11-05T20:32:10.136Z,3.17
2017-11-05T20:34:39.935Z,4.03
2017-11-05T20:37:09.923Z,4.50
2017-11-05T20:39:39.700Z,5.63
2017-11-05T20:42:09.552Z,8.70
2017-11-05T20:44:39.698Z,6.60
2017-11-05T20:47:09.655Z,7.20
2017-11-05T20:49:40.467Z,10.97
2017-11-05T20:52:10.493Z,11.53
2017-11-05T20:54:40.438Z,7.68
2017-11-05T20:57:10.198Z,6.97
2017-11-05T20:59:39.970Z,5.97
2017-11-05T21:02:09.773Z,5.23
2017-11-05T21:04:39.675Z,5.30
2017-11-05T21:07:09.472Z,6.67
2017-11-05T21:09:40.067Z,8.73
2017-11-05T21:12:09.810Z,12.80
2017-11-05T21:14:39.815Z,9.33
2017-11-05T21:17:10.808Z,12.03
2017-11-05T21:19:40.911Z,12.43
2017-11-05T21:22:10.757Z,7.97
2017-11-05T21:24:40.558Z,6.03
2017-11-05T21:27:11.132Z,6.40
2017-11-05T21:29:40.934Z,5.33
2017-11-05T21:32:11.318Z,5.00
2017-11-05T21:34:41.047Z,4.83
2017-11-05T21:37:10.708Z,6.03
2017-11-05T21:39:40.625Z,4.80
2017-11-05T21:42:09.481Z,6.47
2017-11-05T21:44:38.941Z,6.13
2017-11-05T21:47:07.463Z,5.93
2017-11-05T21:49:36.185Z,6.00
2017-11-05T21:52:04.508Z,4.57
2017-11-05T21:54:32.809Z,4.80
2017-11-05T21:57:01.100Z,4.72
2017-11-05T21:59:30.311Z,5.77
2017-11-05T22:01:58.596Z,5.00
2017-11-05T22:04:26.876Z,5.57
2017-11-05T22:06:57.107Z,4.82
2017-11-05T22:09:25.417Z,5.40
2017-11-05T22:11:53.697Z,5.90
2017-11-05T22:14:22.153Z,4.50
2017-11-05T22:16:51.813Z,4.90
2017-11-05T22:19:20.124Z,4.20
2017-11-05T22:21:48.421Z,4.47
2017-11-05T22:24:16.692Z,5.23
2017-11-05T22:26:45.516Z,4.20
2017-11-05T22:29:13.812Z,4.30
2017-11-05T22:31:42.096Z,4.07
2017-11-05T22:34:10.396Z,6.00
2017-11-05T22:36:38.676Z,5.23
2017-11-05T22:39:07.725Z,5.12
2017-11-05T22:41:36.033Z,5.50
2017-11-05T22:44:04.303Z,5.97
2017-11-05T22:46:32.570Z,5.40
2017-11-05T22:49:00.874Z,4.85
2017-11-05T22:51:29.922Z,5.50
2017-11-05T22:53:59.177Z,7.07
2017-11-05T22:56:27.476Z,6.97
2017-11-05T22:58:56.345Z,7.00
2017-11-05T23:01:25.376Z,4.97
2017-11-05T23:03:53.659Z,4.60
2017-11-05T23:06:21.955Z,4.67
2017-11-05T23:08:51.212Z,5.30
2017-11-05T23:11:19.493Z,5.17
2017-11-05T23:13:47.775Z,4.87
2017-11-05T23:16:16.050Z,5.23
2017-11-05T23:18:44.325Z,3.93
2017-11-05T23:21:12.605Z,5.63
2017-11-05T23:23:40.877Z,5.07
2017-11-05T23:26:09.172Z,3.58
2017-11-05T23:28:39.373Z,5.33
2017-11-05T23:31:07.684Z,4.10
2017-11-05T23:33:35.981Z,3.20
2017-11-05T23:36:05.041Z,4.90
2017-11-05T23:38:33.312Z,4.53
2017-11-05T23:41:02.103Z,3.42
2017-11-05T23:43:30.369Z,4.00
2017-11-05T23:45:58.654Z,3.40
2017-11-05T23:48:29.780Z,3.37
2017-11-05T23:51:00.214Z,4.83
2017-11-05T23:53:29.526Z,4.73
2017-11-05T23:55:57.804Z,3.60
2017-11-05T23:58:26.153Z,4.87
